createdAt,value
2023-03-23T16:02:25.561Z,9.90
2023-03-23T16:07:27.641Z,9.90
2023-03-23T16:12:29.353Z,9.90
2023-03-23T16:17:31.128Z,9.90
2023-03-23T16:22:32.969Z,9.80
2023-03-23T16:27:34.716Z,9.80
2023-03-23T16:37:37.761Z,9.70
2023-03-23T16:42:39.582Z,9.70
2023-03-23T16:47:42.150Z,9.70
2023-03-23T16:52:47.567Z,9.70
2023-03-23T16:57:49.347Z,9.60
2023-03-23T17:02:52.213Z,9.60
2023-03-23T17:07:55.908Z,9.60
2023-03-23T17:12:57.763Z,9.60
2023-03-23T17:17:59.570Z,9.60
2023-03-23T17:23:02.491Z,9.60
2023-03-23T17:28:05.857Z,9.60
2023-03-23T17:33:09.092Z,9.50
2023-03-23T17:38:11.260Z,9.50
2023-03-23T17:43:13.024Z,9.50
2023-03-23T17:48:14.777Z,9.50
2023-03-23T17:53:18.483Z,9.50
2023-03-23T17:58:20.838Z,9.50
2023-03-23T18:03:23.754Z,9.40
2023-03-23T18:08:26.854Z,9.40
2023-03-23T18:13:30.413Z,9.40
2023-03-23T18:18:32.890Z,9.40
2023-03-23T18:23:46.181Z,9.30
2023-03-23T18:28:55.881Z,9.20
2023-03-23T18:33:57.718Z,9.20
2023-03-23T18:38:59.728Z,9.10
2023-03-23T18:44:01.508Z,9.10
2023-03-23T18:49:03.765Z,9.10
2023-03-23T18:54:05.707Z,9.10
2023-03-23T18:59:07.439Z,9.00
2023-03-23T19:04:09.348Z,9.00
2023-03-23T19:09:11.399Z,9.00
2023-03-23T19:14:13.594Z,9.00
2023-03-23T19:19:15.418Z,9.00
2023-03-23T19:24:17.302Z,9.00
2023-03-23T19:29:26.683Z,9.00
2023-03-23T19:34:30.089Z,9.00
2023-03-23T19:39:32.969Z,9.00
2023-03-23T19:44:34.971Z,8.90
2023-03-23T19:49:36.867Z,8.90
2023-03-23T19:54:39.595Z,8.80
2023-03-23T19:59:42.222Z,8.80
2023-03-23T20:04:45.083Z,8.80
2023-03-23T20:09:48.554Z,8.60
2023-03-23T20:14:50.883Z,8.60
2023-03-23T20:19:52.648Z,8.70
2023-03-23T20:24:54.515Z,8.60
2023-03-23T20:29:57.011Z,8.60
2023-03-23T20:35:01.546Z,8.60
2023-03-23T20:40:03.657Z,8.50
2023-03-23T20:45:07.370Z,8.50
2023-03-23T20:50:10.727Z,8.50
2023-03-23T20:55:12.563Z,8.50
2023-03-23T21:00:16.448Z,8.60
2023-03-23T21:05:18.307Z,8.50
2023-03-23T21:10:22.769Z,8.50
2023-03-23T21:15:24.564Z,8.50
2023-03-23T21:20:27.009Z,8.60
2023-03-23T21:25:34.033Z,8.60
2023-03-23T21:30:37.656Z,8.60
2023-03-23T21:35:41.679Z,8.70
2023-03-23T21:40:44.813Z,8.70
2023-03-23T21:45:46.886Z,8.70
2023-03-23T21:50:49.331Z,8.80
2023-03-23T21:55:52.536Z,8.70
2023-03-23T22:00:55.381Z,8.80
2023-03-23T22:05:57.152Z,8.80
2023-03-23T22:11:03.575Z,8.80
2023-03-23T22:16:09.333Z,8.80
2023-03-23T22:21:12.957Z,8.80
2023-03-23T22:26:16.583Z,8.60
2023-03-23T22:31:22.068Z,8.70
2023-03-23T22:36:25.888Z,8.80
2023-03-23T22:41:37.069Z,8.70
2023-03-23T22:46:39.788Z,8.80
2023-03-23T22:51:41.601Z,8.80
2023-03-23T22:56:43.472Z,8.80
2023-03-23T23:01:45.689Z,8.80
2023-03-23T23:06:47.500Z,8.80
2023-03-23T23:11:49.391Z,8.80
2023-03-23T23:16:51.822Z,8.80
2023-03-23T23:21:55.743Z,8.80
2023-03-23T23:26:58.609Z,8.80
2023-03-23T23:32:02.137Z,8.70
2023-03-23T23:37:04.100Z,8.70
2023-03-23T23:42:06.296Z,8.70
2023-03-23T23:47:10.503Z,8.70
2023-03-23T23:52:12.486Z,8.70
2023-03-23T23:57:16.682Z,8.60
